createdAt,value
2019-04-23T00:01:14.702Z,77.90
2019-04-23T00:03:42.022Z,77.90
2019-04-23T00:06:15.204Z,77.90
2019-04-23T00:08:42.172Z,78.30
2019-04-23T00:11:05.359Z,78.50
2019-04-23T00:13:37.454Z,78.50
2019-04-23T00:16:12.945Z,78.70
2019-04-23T00:18:36.909Z,78.40
2019-04-23T00:21:08.809Z,78.30
2019-04-23T00:23:44.930Z,79.00
2019-04-23T00:26:12.978Z,79.30
2019-04-23T00:31:05.181Z,79.20
2019-04-23T00:33:30.203Z,79.50
2019-04-23T00:35:55.244Z,79.50
2019-04-23T00:38:33.495Z,79.60
2019-04-23T00:41:00.671Z,80.10
2019-04-23T00:43:27.270Z,80.10
2019-04-23T00:45:55.244Z,80.50
2019-04-23T00:53:23.401Z,80.60
2019-04-23T00:56:01.985Z,80.90
2019-04-23T01:03:16.919Z,81.00
2019-04-23T01:06:02.746Z,80.80
2019-04-23T01:10:59.814Z,81.50
2019-04-23T01:13:22.849Z,81.40
2019-04-23T01:15:57.761Z,81.60
2019-04-23T01:20:54.382Z,82.20
2019-04-23T01:23:41.889Z,82.10
2019-04-23T01:26:24.627Z,81.90
2019-04-23T01:31:27.153Z,82.20
2019-04-23T01:34:10.560Z,82.70
2019-04-23T01:36:25.612Z,83.00
2019-04-23T01:38:56.023Z,83.10
2019-04-23T01:41:20.508Z,83.40
2019-04-23T01:43:47.831Z,83.30
2019-04-23T01:46:14.007Z,84.10
2019-04-23T01:48:47.100Z,83.60
2019-04-23T01:51:08.187Z,83.50
2019-04-23T01:53:45.606Z,83.70
2019-04-23T01:56:11.414Z,83.40
2019-04-23T01:58:45.100Z,83.50
2019-04-23T02:01:07.278Z,84.00
2019-04-23T02:03:57.685Z,84.40
2019-04-23T02:06:06.843Z,84.00
2019-04-23T02:08:32.300Z,84.70
2019-04-23T02:11:02.989Z,84.10
2019-04-23T02:15:57.147Z,84.70
2019-04-23T02:18:43.164Z,84.80
2019-04-23T02:21:00.721Z,85.00
2019-04-23T02:23:34.272Z,84.90
2019-04-23T02:26:15.204Z,84.90
2019-04-23T02:28:32.919Z,85.20
2019-04-23T02:38:44.286Z,86.30
2019-04-23T02:46:04.465Z,86.50
2019-04-23T02:48:24.094Z,86.40
2019-04-23T02:58:26.352Z,87.50
2019-04-23T03:01:08.940Z,88.10
2019-04-23T03:03:25.232Z,87.90
2019-04-23T03:05:49.361Z,88.00
2019-04-23T03:08:17.109Z,88.00
2019-04-23T03:10:51.291Z,88.10
2019-04-23T03:13:29.652Z,88.20
2019-04-23T03:18:39.656Z,88.80
2019-04-23T03:23:52.200Z,89.70
2019-04-23T03:26:38.247Z,89.70
2019-04-23T03:41:15.435Z,90.50
2019-04-23T03:43:37.527Z,90.70
2019-04-23T03:46:17.261Z,90.60
2019-04-23T03:48:44.557Z,90.60
2019-04-23T03:51:01.334Z,91.00
2019-04-23T03:56:18.755Z,90.80
2019-04-23T04:03:52.673Z,90.70
2019-04-23T04:06:05.547Z,91.10
2019-04-23T04:08:25.828Z,91.00
2019-04-23T04:11:02.504Z,91.00
2019-04-23T04:28:17.738Z,91.20
2019-04-23T04:40:50.021Z,91.20
2019-04-23T04:46:04.791Z,91.30
2019-04-23T04:48:20.394Z,91.60
2019-04-23T04:50:50.748Z,91.50
2019-04-23T04:53:37.998Z,91.30
2019-04-23T04:55:55.699Z,91.30
2019-04-23T04:58:33.591Z,91.00
2019-04-23T05:08:19.733Z,91.40
2019-04-23T05:15:39.511Z,90.80
2019-04-23T05:18:25.348Z,90.80
2019-04-23T05:20:56.465Z,90.60
2019-04-23T05:25:44.704Z,90.40
2019-04-23T05:30:50.103Z,89.70
2019-04-23T05:36:09.097Z,89.90
2019-04-23T05:38:22.755Z,89.10
2019-04-23T05:43:08.194Z,88.40
2019-04-23T05:45:37.343Z,88.20
2019-04-23T05:50:44.400Z,87.50
2019-04-23T05:53:05.373Z,87.40
2019-04-23T05:55:46.056Z,86.50
2019-04-23T05:58:00.577Z,85.90
2019-04-23T06:00:39.804Z,85.60
2019-04-23T06:03:08.082Z,85.70
2019-04-23T06:05:38.773Z,85.30
2019-04-23T06:08:05.620Z,84.90
2019-04-23T06:10:34.039Z,84.70
2019-04-23T06:13:05.891Z,85.60
2019-04-23T06:15:31.489Z,84.20
2019-04-23T06:20:40.190Z,83.60
2019-04-23T06:23:05.729Z,83.60
2019-04-23T06:25:50.901Z,84.20
2019-04-23T06:28:02.080Z,83.10
2019-04-23T06:30:34.281Z,83.00
2019-04-23T06:32:59.694Z,82.60
2019-04-23T06:35:24.178Z,82.00
2019-04-23T06:38:20.233Z,82.10
2019-04-23T06:40:21.607Z,81.20
2019-04-23T06:43:01.264Z,81.00
2019-04-23T06:45:22.511Z,81.10
2019-04-23T06:47:54.090Z,81.20
2019-04-23T06:50:19.223Z,80.50
2019-04-23T06:52:53.523Z,81.00
2019-04-23T06:55:20.413Z,80.10
2019-04-23T06:57:48.274Z,80.20
2019-04-23T07:00:21.128Z,80.00
2019-04-23T07:03:10.419Z,79.60
2019-04-23T07:05:20.617Z,79.30
2019-04-23T07:15:30.896Z,79.10
2019-04-23T07:17:39.554Z,78.70
2019-04-23T07:20:16.519Z,78.30
2019-04-23T07:22:34.564Z,78.50
2019-04-23T07:25:11.130Z,78.00
2019-04-23T07:27:30.110Z,77.90
2019-04-23T07:30:11.486Z,77.80
2019-04-23T07:32:35.774Z,78.20
2019-04-23T07:35:07.095Z,78.50
2019-04-23T07:37:43.219Z,77.50
2019-04-23T07:42:42.006Z,76.80
2019-04-23T07:45:16.053Z,76.70
2019-04-23T07:48:06.514Z,76.50
2019-04-23T07:53:11.555Z,76.10
2019-04-23T07:55:41.133Z,75.80
2019-04-23T07:58:06.515Z,76.20
2019-04-23T08:00:41.787Z,76.50
2019-04-23T08:03:13.879Z,75.80
2019-04-23T08:05:37.692Z,75.60
2019-04-23T08:08:01.722Z,75.70
2019-04-23T08:10:35.758Z,75.50
2019-04-23T08:13:14.443Z,75.50
2019-04-23T08:15:36.942Z,75.20
2019-04-23T08:18:07.034Z,75.10
2019-04-23T08:20:40.680Z,75.50
2019-04-23T08:23:01.960Z,75.50
2019-04-23T08:26:04.552Z,74.60
2019-04-23T08:28:25.764Z,75.00
2019-04-23T08:30:49.914Z,75.10
2019-04-23T08:33:17.551Z,74.50
2019-04-23T08:35:51.411Z,74.60
2019-04-23T08:38:25.949Z,73.80
2019-04-23T08:40:57.545Z,73.90
2019-04-23T08:43:32.941Z,73.40
2019-04-23T08:46:07.147Z,73.70
2019-04-23T08:48:34.444Z,73.80
2019-04-23T08:51:19.532Z,73.80
2019-04-23T08:56:15.476Z,73.50
2019-04-23T08:58:30.191Z,73.40
2019-04-23T09:01:04.186Z,73.60
2019-04-23T09:05:57.676Z,72.60
2019-04-23T09:08:27.715Z,72.50
2019-04-23T09:10:56.786Z,72.10
2019-04-23T09:15:51.166Z,72.90
2019-04-23T09:20:41.366Z,72.50
2019-04-23T09:23:24.482Z,72.10
2019-04-23T09:25:49.774Z,71.40
2019-04-23T09:28:24.029Z,71.70
2019-04-23T09:30:49.579Z,71.90
2019-04-23T09:33:25.918Z,71.50
2019-04-23T09:36:09.736Z,70.60
2019-04-23T09:38:34.460Z,70.70
2019-04-23T09:43:46.709Z,70.20
2019-04-23T09:46:30.297Z,70.50
2019-04-23T09:48:58.124Z,70.00
2019-04-23T09:51:25.563Z,69.90
2019-04-23T09:53:51.209Z,69.90
2019-04-23T09:56:22.295Z,69.30
2019-04-23T09:58:58.664Z,69.50
2019-04-23T10:01:25.021Z,69.10
2019-04-23T10:03:38.970Z,69.40
2019-04-23T10:06:04.236Z,69.40
2019-04-23T10:08:30.817Z,68.90
2019-04-23T10:10:53.332Z,69.00
2019-04-23T10:13:20.254Z,69.80
2019-04-23T10:15:49.641Z,69.00
2019-04-23T10:18:16.165Z,69.20
2019-04-23T10:20:44.501Z,68.30
2019-04-23T10:23:12.362Z,68.10
2019-04-23T10:25:40.230Z,68.30
2019-04-23T10:28:11.042Z,67.70
2019-04-23T10:30:38.514Z,67.50
2019-04-23T10:33:05.648Z,67.90
2019-04-23T10:35:41.077Z,67.80
2019-04-23T10:38:07.961Z,67.70
2019-04-23T10:40:34.800Z,67.00
2019-04-23T10:43:02.133Z,68.00
2019-04-23T10:45:44.719Z,67.60
2019-04-23T10:49:10.792Z,67.30
2019-04-23T10:51:18.613Z,66.90
2019-04-23T10:53:54.447Z,66.90
2019-04-23T10:56:30.967Z,67.80
2019-04-23T10:58:45.823Z,67.70
2019-04-23T11:01:20.846Z,67.80
2019-04-23T11:06:25.276Z,66.60
2019-04-23T11:08:51.867Z,67.70
2019-04-23T11:11:25.640Z,68.40
2019-04-23T11:13:56.646Z,67.10
2019-04-23T11:16:49.242Z,67.80
2019-04-23T11:18:59.870Z,66.50
2019-04-23T11:21:31.338Z,66.90
2019-04-23T11:23:49.762Z,66.70
2019-04-23T11:26:21.814Z,67.70
2019-04-23T11:28:45.119Z,67.70
2019-04-23T11:31:25.992Z,67.70
2019-04-23T11:33:50.852Z,67.00
2019-04-23T11:36:41.137Z,67.50
2019-04-23T11:41:22.815Z,67.70
2019-04-23T11:43:39.504Z,67.00
2019-04-23T11:46:32.636Z,68.10
2019-04-23T11:48:51.352Z,66.20
2019-04-23T11:51:38.790Z,66.50
2019-04-23T11:53:41.013Z,67.40
2019-04-23T11:56:20.937Z,67.50
2019-04-23T11:58:39.642Z,67.20
2019-04-23T12:04:14.330Z,67.00
2019-04-23T12:06:52.702Z,66.00
2019-04-23T12:09:45.130Z,66.50
2019-04-23T12:14:42.072Z,66.90
2019-04-23T12:17:07.874Z,66.80
2019-04-23T12:19:44.350Z,66.50
2019-04-23T12:21:54.793Z,65.70
2019-04-23T12:24:27.123Z,66.70
2019-04-23T12:26:53.869Z,66.20
2019-04-23T12:29:23.751Z,66.10
2019-04-23T12:32:15.049Z,65.10
2019-04-23T12:34:45.430Z,65.10
2019-04-23T12:37:14.372Z,66.70
2019-04-23T12:39:42.026Z,66.00
2019-04-23T12:42:25.548Z,66.40
2019-04-23T12:44:38.772Z,66.40
2019-04-23T12:47:18.002Z,66.10
2019-04-23T12:49:53.323Z,65.20
2019-04-23T12:52:04.619Z,65.80
2019-04-23T12:54:51.106Z,65.60
2019-04-23T12:59:38.424Z,65.60
2019-04-23T13:02:05.316Z,65.30
2019-04-23T13:04:33.170Z,64.40
2019-04-23T13:07:11.312Z,65.20
2019-04-23T13:09:46.735Z,64.80
2019-04-23T13:12:25.618Z,64.10
2019-04-23T13:14:51.032Z,64.20
2019-04-23T13:17:19.914Z,64.10
2019-04-23T13:22:09.997Z,64.10
2019-04-23T13:24:37.466Z,65.20
2019-04-23T13:27:15.183Z,64.20
2019-04-23T13:32:05.441Z,63.10
2019-04-23T13:34:40.922Z,62.90
2019-04-23T13:37:07.869Z,63.00
2019-04-23T13:39:39.685Z,62.70
2019-04-23T13:42:05.470Z,62.20
2019-04-23T13:44:34.012Z,62.90
2019-04-23T13:47:15.675Z,62.40
2019-04-23T13:49:34.991Z,62.00
2019-04-23T13:52:05.651Z,62.30
2019-04-23T13:54:56.423Z,60.90
2019-04-23T13:57:36.967Z,61.80
2019-04-23T14:01:59.725Z,61.10
2019-04-23T14:04:50.622Z,63.30
2019-04-23T14:07:24.889Z,62.60
2019-04-23T14:09:58.444Z,61.70
2019-04-23T14:12:20.361Z,61.90
2019-04-23T14:19:47.634Z,59.70
2019-04-23T14:22:40.567Z,60.10
2019-04-23T14:24:57.638Z,60.50
2019-04-23T14:27:17.956Z,60.00
2019-04-23T14:29:50.453Z,60.30
2019-04-23T14:32:19.030Z,60.00
2019-04-23T14:34:48.423Z,60.30
2019-04-23T14:37:14.937Z,59.20
2019-04-23T14:39:41.000Z,59.80
2019-04-23T14:44:41.552Z,58.40
2019-04-23T14:47:28.201Z,58.70
2019-04-23T14:50:17.119Z,58.40
2019-04-23T14:52:21.667Z,59.00
2019-04-23T14:55:22.665Z,58.80
2019-04-23T14:57:30.412Z,58.10
2019-04-23T14:59:56.935Z,58.10
2019-04-23T15:02:13.743Z,58.10
2019-04-23T15:04:47.907Z,57.90
2019-04-23T15:07:22.318Z,58.20
2019-04-23T15:12:16.098Z,58.00
2019-04-23T15:14:52.706Z,57.90
2019-04-23T15:17:15.757Z,57.10
2019-04-23T15:29:19.672Z,59.90
2019-04-23T15:32:20.439Z,61.10
2019-04-23T15:34:51.535Z,60.50
2019-04-23T15:37:13.531Z,61.20
2019-04-23T15:42:08.890Z,61.00
2019-04-23T15:44:48.742Z,62.10
2019-04-23T15:47:19.234Z,61.70
2019-04-23T15:49:45.839Z,62.20
2019-04-23T15:52:10.651Z,62.20
2019-04-23T15:54:42.867Z,62.50
2019-04-23T15:57:07.188Z,62.70
2019-04-23T16:01:42.494Z,63.40
2019-04-23T16:04:06.101Z,64.00
2019-04-23T16:06:37.054Z,64.30
2019-04-23T16:09:20.996Z,64.10
2019-04-23T16:12:09.815Z,63.90
2019-04-23T16:17:12.040Z,64.70
2019-04-23T16:19:52.826Z,65.10
2019-04-23T16:22:35.592Z,65.10
2019-04-23T16:24:48.786Z,65.60
2019-04-23T16:27:11.217Z,66.30
2019-04-23T16:29:55.500Z,66.10
2019-04-23T16:32:20.961Z,66.40
2019-04-23T16:34:50.696Z,66.70
2019-04-23T16:37:29.271Z,66.80
2019-04-23T16:40:08.108Z,67.10
2019-04-23T16:42:23.745Z,67.50
2019-04-23T16:45:07.530Z,67.60
2019-04-23T16:47:18.700Z,67.50
2019-04-23T16:49:51.156Z,68.10
2019-04-23T16:52:17.046Z,68.50
2019-04-23T16:54:50.563Z,68.80
2019-04-23T16:59:53.103Z,69.20
2019-04-23T17:02:18.143Z,69.40
2019-04-23T17:04:39.445Z,69.70
2019-04-23T17:07:02.296Z,69.90
2019-04-23T17:09:42.803Z,70.10
2019-04-23T17:12:09.124Z,70.10
2019-04-23T17:14:47.989Z,70.60
2019-04-23T17:16:56.962Z,71.00
2019-04-23T17:19:31.236Z,70.90
2019-04-23T17:21:59.806Z,71.40
2019-04-23T17:27:00.870Z,72.40
2019-04-23T17:31:53.791Z,73.10
2019-04-23T17:34:30.216Z,73.70
2019-04-23T17:37:05.299Z,74.30
2019-04-23T17:39:25.513Z,74.90
2019-04-23T17:42:18.173Z,75.30
2019-04-23T17:44:44.328Z,75.10
2019-04-23T17:47:06.753Z,75.50
2019-04-23T17:49:35.052Z,76.10
2019-04-23T17:52:03.223Z,76.40
2019-04-23T17:54:30.885Z,77.60
2019-04-23T17:57:05.560Z,77.40
2019-04-23T17:59:28.133Z,77.60
2019-04-23T18:02:22.712Z,77.70
2019-04-23T18:04:31.374Z,77.90
2019-04-23T18:07:06.182Z,78.20
2019-04-23T18:14:13.256Z,79.30
2019-04-23T18:16:50.446Z,80.00
2019-04-23T18:19:15.061Z,80.60
2019-04-23T18:24:42.821Z,81.70
2019-04-23T18:27:05.078Z,82.30
2019-04-23T18:29:57.202Z,82.90
2019-04-23T18:35:08.720Z,83.80
2019-04-23T18:37:24.329Z,84.60
2019-04-23T18:39:59.228Z,84.60
2019-04-23T18:42:25.760Z,85.10
2019-04-23T18:47:26.262Z,86.60
2019-04-23T18:52:30.999Z,87.50
2019-04-23T18:54:40.489Z,88.20
2019-04-23T18:59:46.429Z,89.00
2019-04-23T19:02:39.421Z,89.50
2019-04-23T19:07:56.636Z,89.90
2019-04-23T19:20:45.178Z,91.20
2019-04-23T19:23:00.004Z,91.40
2019-04-23T19:27:52.108Z,92.00
2019-04-23T19:30:37.035Z,92.50
2019-04-23T19:33:03.971Z,93.00
2019-04-23T19:35:50.240Z,93.30
2019-04-23T19:38:08.165Z,93.80
2019-04-23T19:40:37.779Z,94.40
2019-04-23T19:43:00.915Z,94.70
2019-04-23T19:45:38.745Z,95.00
2019-04-23T19:48:09.371Z,95.30
2019-04-23T19:50:41.103Z,95.60
2019-04-23T19:53:20.995Z,95.80
2019-04-23T19:55:41.393Z,96.60
2019-04-23T19:58:06.888Z,96.30
2019-04-23T20:00:44.381Z,96.80
2019-04-23T20:03:16.896Z,96.80
2019-04-23T20:05:38.842Z,96.90
2019-04-23T20:08:02.267Z,96.80
2019-04-23T20:10:30.899Z,97.30
2019-04-23T20:12:52.467Z,97.20
2019-04-23T20:15:29.119Z,97.30
2019-04-23T20:17:48.826Z,97.70
2019-04-23T20:20:30.423Z,97.70
2019-04-23T20:22:52.122Z,97.40
2019-04-23T20:33:34.991Z,97.90
2019-04-23T20:35:17.986Z,98.20
2019-04-23T20:40:23.555Z,98.40
2019-04-23T20:42:49.761Z,98.40
2019-04-23T20:45:33.341Z,98.70
2019-04-23T20:49:59.586Z,98.80
2019-04-23T20:52:40.970Z,98.80
2019-04-23T21:05:19.555Z,99.20
2019-04-23T21:07:54.261Z,99.40
2019-04-23T21:15:12.045Z,99.70
2019-04-23T21:17:54.047Z,99.90
2019-04-23T21:20:26.309Z,99.90
2019-04-23T21:22:55.568Z,99.90
2019-04-23T21:25:03.235Z,99.90
2019-04-23T21:30:03.389Z,99.90
2019-04-23T21:35:07.897Z,99.90
2019-04-23T21:40:55.995Z,99.90
2019-04-23T21:43:05.433Z,99.90
2019-04-23T21:45:31.945Z,99.90
2019-04-23T21:50:39.798Z,99.90
2019-04-23T21:52:54.165Z,99.90
2019-04-23T21:55:35.208Z,99.90
2019-04-23T21:57:59.950Z,99.90
2019-04-23T22:00:26.188Z,99.90
2019-04-23T22:02:54.072Z,99.90
2019-04-23T22:05:27.084Z,99.90
2019-04-23T22:10:18.026Z,99.90
2019-04-23T22:13:48.257Z,99.90
2019-04-23T22:15:12.610Z,99.90
2019-04-23T22:17:44.377Z,99.90
2019-04-23T22:20:17.665Z,99.90
2019-04-23T22:25:03.000Z,99.90
2019-04-23T22:27:41.278Z,99.90
2019-04-23T22:30:04.850Z,99.90
2019-04-23T22:32:50.272Z,99.90
2019-04-23T22:35:16.236Z,99.90
2019-04-23T22:40:02.611Z,99.90
2019-04-23T22:47:25.981Z,99.90
2019-04-23T22:50:02.252Z,99.90
2019-04-23T22:52:21.654Z,99.90
2019-04-23T22:55:07.992Z,99.90
2019-04-23T22:57:16.891Z,99.90
2019-04-23T23:02:41.286Z,99.90
2019-04-23T23:05:09.177Z,99.90
2019-04-23T23:07:28.180Z,99.90
2019-04-23T23:10:00.850Z,99.90
2019-04-23T23:12:34.570Z,99.90
2019-04-23T23:14:54.689Z,99.90
2019-04-23T23:17:20.728Z,99.90
2019-04-23T23:20:01.880Z,99.90
2019-04-23T23:22:46.074Z,99.90
2019-04-23T23:24:49.521Z,99.90
2019-04-23T23:27:29.980Z,99.90
2019-04-23T23:29:50.160Z,99.90
2019-04-23T23:32:16.646Z,99.90
2019-04-23T23:34:54.773Z,99.90
2019-04-23T23:37:09.015Z,99.90
2019-04-23T23:39:49.744Z,99.90
2019-04-23T23:42:14.487Z,99.90
2019-04-23T23:44:50.322Z,99.90
2019-04-23T23:47:09.271Z,99.90
2019-04-23T23:52:25.419Z,99.90
2019-04-23T23:54:55.904Z,99.90
2019-04-23T23:57:13.930Z,99.90
